createdAt,value
2019-01-29T00:00:46.807Z,387.53
2019-01-29T00:03:17.253Z,336.07
2019-01-29T00:05:47.420Z,386.80
2019-01-29T00:08:17.582Z,389.53
2019-01-29T00:10:47.822Z,381.40
2019-01-29T00:13:17.910Z,354.03
2019-01-29T00:15:49.133Z,340.67
2019-01-29T00:18:19.324Z,358.97
2019-01-29T00:20:49.604Z,342.93
2019-01-29T00:23:19.775Z,347.83
2019-01-29T00:25:50.026Z,360.10
2019-01-29T00:28:20.261Z,384.70
2019-01-29T00:30:50.569Z,361.23
2019-01-29T00:33:20.703Z,358.20
2019-01-29T00:35:50.925Z,326.63
2019-01-29T00:38:22.088Z,355.67
2019-01-29T00:40:52.137Z,353.87
2019-01-29T00:43:22.268Z,332.30
2019-01-29T00:45:52.402Z,390.03
2019-01-29T00:48:22.614Z,348.03
2019-01-29T00:50:52.951Z,340.50
2019-01-29T00:53:23.038Z,325.53
2019-01-29T00:55:53.202Z,314.90
2019-01-29T00:58:23.364Z,334.90
2019-01-29T01:00:53.471Z,361.33
2019-01-29T01:03:24.627Z,361.80
2019-01-29T01:05:54.762Z,347.10
2019-01-29T01:08:25.110Z,356.23
2019-01-29T01:10:55.323Z,363.23
2019-01-29T01:13:25.535Z,355.17
2019-01-29T01:15:55.666Z,363.73
2019-01-29T01:18:26.001Z,359.23
2019-01-29T01:20:56.259Z,351.17
2019-01-29T01:23:26.399Z,360.67
2019-01-29T01:25:56.622Z,333.57
2019-01-29T01:28:26.770Z,347.93
2019-01-29T01:30:56.870Z,339.20
2019-01-29T01:33:27.160Z,353.77
2019-01-29T01:35:57.334Z,335.63
2019-01-29T01:38:27.602Z,323.33
2019-01-29T01:40:57.833Z,311.67
2019-01-29T01:43:28.045Z,314.90
2019-01-29T01:45:58.190Z,311.30
2019-01-29T01:48:28.315Z,329.53
2019-01-29T01:50:58.510Z,290.27
2019-01-29T01:53:28.616Z,316.60
2019-01-29T01:55:58.991Z,333.50
2019-01-29T01:58:29.181Z,308.87
2019-01-29T02:00:59.482Z,308.07
2019-01-29T02:03:29.754Z,306.67
2019-01-29T02:06:00.161Z,313.77
2019-01-29T02:08:30.538Z,323.37
2019-01-29T02:11:00.677Z,341.13
2019-01-29T02:13:30.899Z,323.87
2019-01-29T02:16:01.126Z,313.27
2019-01-29T02:18:31.295Z,305.70
2019-01-29T02:21:01.614Z,332.90
2019-01-29T02:23:31.822Z,309.40
2019-01-29T02:26:02.089Z,343.20
2019-01-29T02:28:32.297Z,314.13
2019-01-29T02:31:02.920Z,318.50
2019-01-29T02:33:33.092Z,303.53
2019-01-29T02:36:03.561Z,321.20
2019-01-29T02:38:33.789Z,326.70
2019-01-29T02:41:03.989Z,291.73
2019-01-29T02:43:34.119Z,285.73
2019-01-29T02:46:04.258Z,270.90
2019-01-29T02:48:34.421Z,283.90
2019-01-29T02:51:04.607Z,286.37
2019-01-29T02:53:34.787Z,269.47
2019-01-29T02:56:05.289Z,274.03
2019-01-29T02:58:35.502Z,337.97
2019-01-29T03:01:06.059Z,318.40
2019-01-29T03:03:36.241Z,333.53
2019-01-29T03:06:06.915Z,321.70
2019-01-29T03:08:37.080Z,296.30
2019-01-29T03:11:07.268Z,296.17
2019-01-29T03:13:37.435Z,315.30
2019-01-29T03:16:07.662Z,309.33
2019-01-29T03:18:37.823Z,321.57
2019-01-29T03:21:07.969Z,328.50
2019-01-29T03:23:38.082Z,346.23
2019-01-29T03:26:08.324Z,313.20
2019-01-29T03:28:38.474Z,318.67
2019-01-29T03:31:08.643Z,297.40
2019-01-29T03:33:38.828Z,292.60
2019-01-29T03:36:09.063Z,276.17
2019-01-29T03:38:39.197Z,274.57
2019-01-29T03:41:09.328Z,268.93
2019-01-29T03:43:39.461Z,247.67
2019-01-29T03:46:09.547Z,258.03
2019-01-29T03:48:39.929Z,242.50
2019-01-29T03:51:10.046Z,222.47
2019-01-29T03:53:40.215Z,237.57
2019-01-29T03:56:10.354Z,225.67
2019-01-29T03:58:40.466Z,229.83
2019-01-29T04:01:10.727Z,216.80
2019-01-29T04:03:40.891Z,220.47
2019-01-29T04:06:11.150Z,218.17
2019-01-29T04:08:41.341Z,210.13
2019-01-29T04:11:11.593Z,217.10
2019-01-29T04:13:41.823Z,199.60
2019-01-29T04:16:12.138Z,207.67
2019-01-29T04:18:42.282Z,221.43
2019-01-29T04:21:12.518Z,227.37
2019-01-29T04:23:47.745Z,227.73
2019-01-29T04:26:14.533Z,213.43
2019-01-29T04:28:44.722Z,220.83
2019-01-29T04:31:14.892Z,190.00
2019-01-29T04:33:45.182Z,194.23
2019-01-29T04:36:15.466Z,178.37
2019-01-29T04:38:45.627Z,174.77
2019-01-29T04:41:15.793Z,181.47
2019-01-29T04:43:46.001Z,176.70
2019-01-29T04:46:16.339Z,189.33
2019-01-29T04:48:46.459Z,198.50
2019-01-29T04:51:16.575Z,192.87
2019-01-29T04:53:46.749Z,217.97
2019-01-29T04:56:17.102Z,236.40
2019-01-29T04:58:47.282Z,206.40
2019-01-29T05:01:18.476Z,213.63
2019-01-29T05:03:48.739Z,205.80
2019-01-29T05:06:18.866Z,206.57
2019-01-29T05:08:49.155Z,213.37
2019-01-29T05:11:19.400Z,209.40
2019-01-29T05:13:49.660Z,221.23
2019-01-29T05:16:19.839Z,205.10
2019-01-29T05:18:50.068Z,197.13
2019-01-29T05:21:20.204Z,193.40
2019-01-29T05:23:50.423Z,199.03
2019-01-29T05:26:20.921Z,187.33
2019-01-29T05:28:51.191Z,203.13
2019-01-29T05:31:21.597Z,190.43
2019-01-29T05:33:51.726Z,215.27
2019-01-29T05:36:22.763Z,213.90
2019-01-29T05:38:53.085Z,191.77
2019-01-29T05:41:23.622Z,198.10
2019-01-29T05:43:53.871Z,200.43
2019-01-29T05:46:25.242Z,188.03
2019-01-29T05:48:55.573Z,198.23
2019-01-29T05:51:25.748Z,191.47
2019-01-29T05:53:55.937Z,188.07
2019-01-29T05:56:26.147Z,191.63
2019-01-29T05:58:56.377Z,174.47
2019-01-29T06:01:26.503Z,189.30
2019-01-29T06:03:56.711Z,187.23
2019-01-29T06:06:26.934Z,174.13
2019-01-29T06:08:57.187Z,175.50
2019-01-29T06:11:27.412Z,165.07
2019-01-29T06:13:57.615Z,165.67
2019-01-29T06:16:27.802Z,164.97
2019-01-29T06:18:58.143Z,156.40
2019-01-29T06:21:28.298Z,163.83
2019-01-29T06:23:58.531Z,157.57
2019-01-29T06:26:28.701Z,162.53
2019-01-29T06:28:59.000Z,158.60
2019-01-29T06:31:29.126Z,175.33
2019-01-29T06:33:59.461Z,158.03
2019-01-29T06:36:29.753Z,150.80
2019-01-29T06:38:59.894Z,166.77
2019-01-29T06:41:30.183Z,160.93
2019-01-29T06:44:00.298Z,161.30
2019-01-29T06:46:30.462Z,165.10
2019-01-29T06:49:00.785Z,158.03
2019-01-29T06:51:31.015Z,157.63
2019-01-29T06:54:01.198Z,156.87
2019-01-29T06:56:31.390Z,156.17
2019-01-29T06:59:01.660Z,156.00
2019-01-29T07:01:31.846Z,158.97
2019-01-29T07:04:02.067Z,156.73
2019-01-29T07:06:32.270Z,153.67
2019-01-29T07:09:02.403Z,161.90
2019-01-29T07:11:33.674Z,146.50
2019-01-29T07:14:03.777Z,153.60
2019-01-29T07:16:41.546Z,146.50
2019-01-29T07:19:22.781Z,149.03
2019-01-29T07:21:53.206Z,160.00
2019-01-29T07:24:23.409Z,156.57
2019-01-29T07:26:53.610Z,165.27
2019-01-29T07:29:23.769Z,162.70
2019-01-29T07:31:53.950Z,153.57
2019-01-29T07:34:24.164Z,164.67
2019-01-29T07:36:55.329Z,152.90
2019-01-29T07:39:25.514Z,151.67
2019-01-29T07:41:55.698Z,176.13
2019-01-29T07:44:25.787Z,144.33
2019-01-29T07:46:55.953Z,146.60
2019-01-29T07:49:26.280Z,144.77
2019-01-29T07:51:56.403Z,134.40
2019-01-29T07:54:33.171Z,140.37
2019-01-29T07:56:58.443Z,139.37
2019-01-29T07:59:33.077Z,137.37
2019-01-29T08:02:00.395Z,136.43
2019-01-29T08:04:30.557Z,147.47
2019-01-29T08:07:00.705Z,125.83
2019-01-29T08:09:31.050Z,138.87
2019-01-29T08:12:01.249Z,128.77
2019-01-29T08:14:31.444Z,132.63
2019-01-29T08:17:01.559Z,125.53
2019-01-29T08:19:31.797Z,118.07
2019-01-29T08:22:01.959Z,126.13
2019-01-29T08:24:33.580Z,119.20
2019-01-29T08:27:03.831Z,117.57
2019-01-29T08:29:34.166Z,119.57
2019-01-29T08:32:04.389Z,111.50
2019-01-29T08:34:34.541Z,118.97
2019-01-29T08:37:04.752Z,118.53
2019-01-29T08:39:35.006Z,118.27
2019-01-29T08:42:05.472Z,118.07
2019-01-29T08:44:35.626Z,112.20
2019-01-29T08:47:05.772Z,114.30
2019-01-29T08:49:36.283Z,107.43
2019-01-29T08:52:06.438Z,109.47
2019-01-29T08:54:36.597Z,109.33
2019-01-29T08:57:06.724Z,119.10
2019-01-29T08:59:36.846Z,208.10
2019-01-29T09:02:08.170Z,165.60
2019-01-29T09:04:38.558Z,111.53
2019-01-29T09:07:08.726Z,104.67
2019-01-29T09:09:38.851Z,105.77
2019-01-29T09:12:09.014Z,106.20
2019-01-29T09:14:39.146Z,118.43
2019-01-29T09:17:09.575Z,115.50
2019-01-29T09:19:39.795Z,117.90
2019-01-29T09:22:09.953Z,133.33
2019-01-29T09:24:40.293Z,92.87
2019-01-29T09:27:10.674Z,91.03
2019-01-29T09:29:40.894Z,95.27
2019-01-29T09:32:11.052Z,94.67
2019-01-29T09:34:41.322Z,98.10
2019-01-29T09:37:11.637Z,90.17
2019-01-29T09:39:42.435Z,81.60
2019-01-29T09:42:12.581Z,84.87
2019-01-29T09:44:42.829Z,85.67
2019-01-29T09:47:12.942Z,82.67
2019-01-29T09:49:43.007Z,78.70
2019-01-29T09:52:13.245Z,79.63
2019-01-29T09:54:43.458Z,72.63
2019-01-29T09:57:14.173Z,76.10
2019-01-29T09:59:44.438Z,80.83
2019-01-29T10:02:14.570Z,78.43
2019-01-29T10:04:44.750Z,74.93
2019-01-29T10:07:15.010Z,69.57
2019-01-29T10:09:45.141Z,69.10
2019-01-29T10:12:15.389Z,72.67
2019-01-29T10:14:45.762Z,73.10
2019-01-29T10:17:16.293Z,72.20
2019-01-29T10:19:46.541Z,74.73
2019-01-29T10:22:16.667Z,64.43
2019-01-29T10:24:46.754Z,70.17
2019-01-29T10:27:17.282Z,68.23
2019-01-29T10:29:47.406Z,72.43
2019-01-29T10:32:17.653Z,69.97
2019-01-29T10:34:47.830Z,75.57
2019-01-29T10:37:18.010Z,79.77
2019-01-29T10:39:48.389Z,69.63
2019-01-29T10:42:18.554Z,68.60
2019-01-29T10:44:48.773Z,73.37
2019-01-29T10:47:18.994Z,65.53
2019-01-29T10:49:49.298Z,68.17
2019-01-29T10:52:19.447Z,66.77
2019-01-29T10:54:49.629Z,60.93
2019-01-29T10:57:19.784Z,56.80
2019-01-29T10:59:49.977Z,55.97
2019-01-29T11:02:20.174Z,52.20
2019-01-29T11:04:50.366Z,55.43
2019-01-29T11:07:20.438Z,52.33
2019-01-29T11:09:50.667Z,51.80
2019-01-29T11:12:20.882Z,50.70
2019-01-29T11:14:50.998Z,50.87
2019-01-29T11:17:21.183Z,55.97
2019-01-29T11:19:51.317Z,56.07
2019-01-29T11:22:21.381Z,53.37
2019-01-29T11:24:51.526Z,55.47
2019-01-29T11:27:21.766Z,55.70
2019-01-29T11:29:51.975Z,56.33
2019-01-29T11:32:22.135Z,51.33
2019-01-29T11:34:52.267Z,52.53
2019-01-29T11:37:22.455Z,50.27
2019-01-29T11:39:52.581Z,53.23
2019-01-29T11:42:22.879Z,50.97
2019-01-29T11:44:53.030Z,51.67
2019-01-29T11:47:23.175Z,50.50
2019-01-29T11:49:53.330Z,49.47
2019-01-29T11:52:23.459Z,44.93
2019-01-29T11:54:53.753Z,46.60
2019-01-29T11:57:23.963Z,44.57
2019-01-29T11:59:54.178Z,45.30
2019-01-29T12:02:28.493Z,43.30
2019-01-29T12:04:56.222Z,43.53
2019-01-29T12:07:26.575Z,47.63
2019-01-29T12:09:56.704Z,43.90
2019-01-29T12:12:26.859Z,51.20
2019-01-29T12:14:57.058Z,51.83
2019-01-29T12:17:27.262Z,64.47
2019-01-29T12:19:57.435Z,65.40
2019-01-29T12:22:27.678Z,53.03
2019-01-29T12:24:57.730Z,54.40
2019-01-29T12:27:28.954Z,56.90
2019-01-29T12:29:59.089Z,44.57
2019-01-29T12:32:29.279Z,55.83
2019-01-29T12:34:59.486Z,44.90
2019-01-29T12:37:29.655Z,40.17
2019-01-29T12:39:59.767Z,42.23
2019-01-29T12:42:30.081Z,40.13
2019-01-29T12:45:00.265Z,44.27
2019-01-29T12:47:30.440Z,48.87
2019-01-29T12:50:00.611Z,48.30
2019-01-29T12:52:48.902Z,47.17
2019-01-29T12:55:19.281Z,54.20
2019-01-29T12:57:49.653Z,51.97
2019-01-29T13:00:20.183Z,55.17
2019-01-29T13:02:50.593Z,49.23
2019-01-29T13:05:21.189Z,42.67
2019-01-29T13:07:51.414Z,48.80
2019-01-29T13:10:22.046Z,78.80
2019-01-29T13:12:53.182Z,60.07
2019-01-29T13:15:26.502Z,48.03
2019-01-29T13:17:56.953Z,43.80
2019-01-29T13:20:27.079Z,46.33
2019-01-29T13:22:57.444Z,48.50
2019-01-29T13:25:27.577Z,46.83
2019-01-29T13:27:57.730Z,36.90
2019-01-29T13:30:32.666Z,33.80
2019-01-29T13:33:03.090Z,33.53
2019-01-29T13:35:34.838Z,44.57
2019-01-29T13:38:05.741Z,36.33
2019-01-29T13:40:36.148Z,38.07
2019-01-29T13:43:06.909Z,35.77
2019-01-29T13:45:37.190Z,35.47
2019-01-29T13:48:07.533Z,37.10
2019-01-29T13:50:40.908Z,39.67
2019-01-29T13:53:11.161Z,37.10
2019-01-29T13:55:41.543Z,35.67
2019-01-29T13:58:13.619Z,37.20
2019-01-29T14:00:43.944Z,35.80
2019-01-29T14:03:14.124Z,33.97
2019-01-29T14:05:44.281Z,36.43
2019-01-29T14:08:14.404Z,38.30
2019-01-29T14:10:44.531Z,31.70
2019-01-29T14:13:14.882Z,33.50
2019-01-29T14:15:47.460Z,31.60
2019-01-29T14:18:18.830Z,33.40
2019-01-29T14:20:49.021Z,33.80
2019-01-29T14:23:19.110Z,33.67
2019-01-29T14:25:49.382Z,39.30
2019-01-29T14:28:19.647Z,39.03
2019-01-29T14:30:49.927Z,36.03
2019-01-29T14:33:20.276Z,32.90
2019-01-29T14:35:50.427Z,36.27
2019-01-29T14:39:03.834Z,35.20
2019-01-29T14:41:35.738Z,38.37
2019-01-29T14:44:08.612Z,39.43
2019-01-29T14:46:38.729Z,33.30
2019-01-29T14:49:08.863Z,36.23
2019-01-29T14:51:39.038Z,32.77
2019-01-29T14:54:09.689Z,32.57
2019-01-29T14:56:39.809Z,36.67
2019-01-29T14:59:10.020Z,31.47
2019-01-29T15:01:41.193Z,36.83
2019-01-29T15:04:11.582Z,32.33
2019-01-29T15:06:41.801Z,31.90
2019-01-29T15:09:12.972Z,43.83
2019-01-29T15:11:43.203Z,41.30
2019-01-29T15:14:13.510Z,42.17
2019-01-29T15:17:02.830Z,44.60
2019-01-29T15:19:33.731Z,40.90
2019-01-29T15:22:04.011Z,42.43
2019-01-29T15:24:34.214Z,41.57
2019-01-29T15:27:05.991Z,43.00
2019-01-29T15:29:36.626Z,54.60
2019-01-29T15:32:06.883Z,53.50
2019-01-29T15:34:37.075Z,38.77
2019-01-29T15:37:07.260Z,54.30
2019-01-29T15:39:37.676Z,73.37
2019-01-29T15:42:07.866Z,53.57
2019-01-29T15:44:38.117Z,43.30
2019-01-29T15:47:08.276Z,40.67
2019-01-29T15:49:38.525Z,40.73
2019-01-29T15:52:08.734Z,38.37
2019-01-29T15:54:38.898Z,41.10
2019-01-29T15:57:14.022Z,39.93
2019-01-29T15:59:43.085Z,44.93
2019-01-29T16:02:12.896Z,47.03
2019-01-29T16:04:43.153Z,47.47
2019-01-29T16:07:13.329Z,50.70
2019-01-29T16:09:43.683Z,46.73
2019-01-29T16:12:13.883Z,45.17
2019-01-29T16:14:44.070Z,44.87
2019-01-29T16:17:14.254Z,36.23
2019-01-29T16:19:44.470Z,41.50
2019-01-29T16:22:14.580Z,39.37
2019-01-29T16:24:44.811Z,39.10
2019-01-29T16:27:22.614Z,37.67
2019-01-29T16:29:47.250Z,44.40
2019-01-29T16:32:17.396Z,40.03
2019-01-29T16:34:47.552Z,35.97
2019-01-29T16:37:17.749Z,40.80
2019-01-29T16:39:48.041Z,38.93
2019-01-29T16:42:18.285Z,46.00
2019-01-29T16:44:48.450Z,45.50
2019-01-29T16:47:18.667Z,39.93
2019-01-29T16:49:48.862Z,38.07
2019-01-29T16:52:18.981Z,41.00
2019-01-29T16:54:49.211Z,38.60
2019-01-29T16:57:19.447Z,40.77
2019-01-29T16:59:49.665Z,41.13
2019-01-29T17:02:19.781Z,43.10
2019-01-29T17:04:50.050Z,61.77
2019-01-29T17:07:20.521Z,64.37
2019-01-29T17:09:50.768Z,70.23
2019-01-29T17:12:21.141Z,61.93
2019-01-29T17:14:51.240Z,54.73
2019-01-29T17:17:21.510Z,58.67
2019-01-29T17:19:51.697Z,60.63
2019-01-29T17:22:21.973Z,58.17
2019-01-29T17:24:52.430Z,55.53
2019-01-29T17:27:22.513Z,57.83
2019-01-29T17:29:52.718Z,52.47
2019-01-29T17:32:30.317Z,61.43
2019-01-29T17:34:56.296Z,54.23
2019-01-29T17:37:26.494Z,70.37
2019-01-29T17:39:57.009Z,93.00
2019-01-29T17:42:27.226Z,60.37
2019-01-29T17:44:57.494Z,62.33
2019-01-29T17:47:27.679Z,65.20
2019-01-29T17:49:57.945Z,59.63
2019-01-29T17:52:28.253Z,50.90
2019-01-29T17:54:58.442Z,52.27
2019-01-29T17:57:28.625Z,53.03
2019-01-29T17:59:58.869Z,54.33
2019-01-29T18:02:29.150Z,58.50
2019-01-29T18:05:01.351Z,53.97
2019-01-29T18:07:31.633Z,54.20
2019-01-29T18:10:01.859Z,48.50
2019-01-29T18:12:32.112Z,55.07
2019-01-29T18:15:05.448Z,65.07
2019-01-29T18:17:48.684Z,71.53
2019-01-29T18:20:24.856Z,67.10
2019-01-29T18:22:55.169Z,58.80
2019-01-29T18:25:25.461Z,58.50
2019-01-29T18:28:01.430Z,65.17
2019-01-29T18:30:30.091Z,64.50
2019-01-29T18:33:00.278Z,68.83
2019-01-29T18:35:32.135Z,66.77
2019-01-29T18:38:02.299Z,57.27
2019-01-29T18:40:35.950Z,51.37
2019-01-29T18:43:06.643Z,54.73
2019-01-29T18:45:36.834Z,59.43
2019-01-29T18:48:07.085Z,66.20
2019-01-29T18:50:37.454Z,62.50
2019-01-29T18:53:07.754Z,57.00
2019-01-29T18:55:38.014Z,57.43
2019-01-29T18:58:12.033Z,54.10
2019-01-29T19:00:40.426Z,50.63
2019-01-29T19:03:10.897Z,68.90
2019-01-29T19:05:44.098Z,69.30
2019-01-29T19:08:14.527Z,69.40
2019-01-29T19:10:47.140Z,65.17
2019-01-29T19:13:17.432Z,61.97
2019-01-29T19:15:47.656Z,65.37
2019-01-29T19:18:17.978Z,59.67
2019-01-29T19:20:48.158Z,56.07
2019-01-29T19:23:18.489Z,58.30
2019-01-29T19:25:48.750Z,57.33
2019-01-29T19:28:22.281Z,57.10
2019-01-29T19:30:52.822Z,68.43
2019-01-29T19:33:23.079Z,69.80
2019-01-29T19:35:53.310Z,86.87
2019-01-29T19:38:23.586Z,90.00
2019-01-29T19:40:54.058Z,93.93
2019-01-29T19:43:24.417Z,78.27
2019-01-29T19:45:54.777Z,70.10
2019-01-29T19:48:25.259Z,69.77
2019-01-29T19:50:55.477Z,58.57
2019-01-29T19:53:25.854Z,57.93
2019-01-29T19:55:56.058Z,58.60
2019-01-29T19:58:32.299Z,59.30
2019-01-29T20:00:58.330Z,82.70
2019-01-29T20:03:28.712Z,86.73
2019-01-29T20:05:58.940Z,96.03
2019-01-29T20:08:29.386Z,94.23
2019-01-29T20:10:59.553Z,74.10
2019-01-29T20:13:29.927Z,70.17
2019-01-29T20:16:04.769Z,67.97
2019-01-29T20:18:35.052Z,63.00
2019-01-29T20:21:05.267Z,60.13
2019-01-29T20:23:35.740Z,59.43
2019-01-29T20:26:06.256Z,63.00
2019-01-29T20:28:42.451Z,61.37
2019-01-29T20:31:08.720Z,68.53
2019-01-29T20:33:40.801Z,69.50
2019-01-29T20:36:11.230Z,75.10
2019-01-29T20:38:41.556Z,73.43
2019-01-29T20:41:11.934Z,67.20
2019-01-29T20:43:43.161Z,65.23
2019-01-29T20:46:13.434Z,66.13
2019-01-29T20:48:43.934Z,67.77
2019-01-29T20:51:14.226Z,65.13
2019-01-29T20:53:44.414Z,70.73
2019-01-29T20:56:14.635Z,71.77
2019-01-29T20:58:52.472Z,73.73
2019-01-29T21:01:16.870Z,82.57
2019-01-29T21:03:47.247Z,76.33
2019-01-29T21:06:17.454Z,79.70
2019-01-29T21:08:47.780Z,75.07
2019-01-29T21:11:18.159Z,77.63
2019-01-29T21:13:48.487Z,106.40
2019-01-29T21:16:19.555Z,100.00
2019-01-29T21:18:49.844Z,83.37
2019-01-29T21:21:20.074Z,76.00
2019-01-29T21:23:50.345Z,75.83
2019-01-29T21:26:20.620Z,70.43
2019-01-29T21:28:51.014Z,73.97
2019-01-29T21:31:21.334Z,67.70
2019-01-29T21:33:51.562Z,75.07
2019-01-29T21:36:21.841Z,75.10
2019-01-29T21:38:52.106Z,73.60
2019-01-29T21:41:22.389Z,77.10
2019-01-29T21:43:52.573Z,86.40
2019-01-29T21:46:22.762Z,76.03
2019-01-29T21:48:52.982Z,82.57
2019-01-29T21:51:23.128Z,80.97
2019-01-29T21:53:53.548Z,73.93
2019-01-29T21:56:23.815Z,85.87
2019-01-29T21:58:54.881Z,79.93
2019-01-29T22:01:25.084Z,68.27
2019-01-29T22:03:55.342Z,63.77
2019-01-29T22:06:25.602Z,58.60
2019-01-29T22:08:55.927Z,58.13
2019-01-29T22:11:26.196Z,62.10
2019-01-29T22:13:57.320Z,56.73
2019-01-29T22:16:27.530Z,56.87
2019-01-29T22:18:57.882Z,59.93
2019-01-29T22:21:28.177Z,55.87
2019-01-29T22:24:00.029Z,59.53
2019-01-29T22:26:30.279Z,57.17
2019-01-29T22:29:00.455Z,61.67
2019-01-29T22:31:33.987Z,61.70
2019-01-29T22:34:04.676Z,62.47
2019-01-29T22:36:35.107Z,64.47
2019-01-29T22:39:09.452Z,53.53
2019-01-29T22:41:40.462Z,61.40
2019-01-29T22:44:10.650Z,68.17
2019-01-29T22:46:40.815Z,66.00
2019-01-29T22:49:11.018Z,66.37
2019-01-29T22:51:41.227Z,64.47
2019-01-29T22:54:11.473Z,63.97
2019-01-29T22:56:41.736Z,61.23
2019-01-29T22:59:11.954Z,57.33
2019-01-29T23:01:43.050Z,48.57
2019-01-29T23:04:28.115Z,51.17
2019-01-29T23:07:16.243Z,56.80
2019-01-29T23:09:49.769Z,57.20
2019-01-29T23:12:20.002Z,61.50
2019-01-29T23:14:50.317Z,62.67
2019-01-29T23:17:20.425Z,63.33
2019-01-29T23:19:56.393Z,55.97
2019-01-29T23:22:26.575Z,61.87
2019-01-29T23:24:56.960Z,62.57
2019-01-29T23:27:27.286Z,62.97
2019-01-29T23:30:00.551Z,53.67
2019-01-29T23:32:30.833Z,53.77
2019-01-29T23:35:01.036Z,55.10
2019-01-29T23:37:32.341Z,56.43
2019-01-29T23:40:02.593Z,58.43
2019-01-29T23:42:33.097Z,55.03
2019-01-29T23:45:03.441Z,55.53
2019-01-29T23:47:33.562Z,52.10
2019-01-29T23:50:04.084Z,55.57
2019-01-29T23:52:34.396Z,56.50
2019-01-29T23:55:05.274Z,54.80
2019-01-29T23:57:35.530Z,56.60
